sensor_id;sensor_type;location;lat;lon;timestamp;P1;durP1;ratioP1;P2;durP2;ratioP2
18296;SDS011;18066;52.106;5.534;2022-10-18T00:01:30;6.07;;;4.07;;
18296;SDS011;18066;52.106;5.534;2022-10-18T00:03:56;4.60;;;3.78;;
18296;SDS011;18066;52.106;5.534;2022-10-18T00:06:23;4.72;;;4.13;;
18296;SDS011;18066;52.106;5.534;2022-10-18T00:08:51;5.53;;;4.05;;
18296;SDS011;18066;52.106;5.534;2022-10-18T00:11:18;5.07;;;4.03;;
18296;SDS011;18066;52.106;5.534;2022-10-18T00:13:45;4.72;;;4.03;;
18296;SDS011;18066;52.106;5.534;2022-10-18T00:16:13;6.38;;;4.00;;
18296;SDS011;18066;52.106;5.534;2022-10-18T00:18:41;3.78;;;3.00;;
18296;SDS011;18066;52.106;5.534;2022-10-18T00:21:11;5.07;;;3.45;;
18296;SDS011;18066;52.106;5.534;2022-10-18T00:23:38;5.32;;;3.20;;
18296;SDS011;18066;52.106;5.534;2022-10-18T00:26:08;3.50;;;3.20;;
18296;SDS011;18066;52.106;5.534;2022-10-18T00:28:37;5.32;;;4.82;;
18296;SDS011;18066;52.106;5.534;2022-10-18T00:31:08;6.40;;;5.38;;
18296;SDS011;18066;52.106;5.534;2022-10-18T00:33:36;5.05;;;4.55;;
18296;SDS011;18066;52.106;5.534;2022-10-18T00:36:03;5.50;;;4.93;;
18296;SDS011;18066;52.106;5.534;2022-10-18T00:38:30;7.40;;;5.15;;
18296;SDS011;18066;52.106;5.534;2022-10-18T00:40:57;8.93;;;5.38;;
18296;SDS011;18066;52.106;5.534;2022-10-18T00:43:26;7.75;;;4.82;;
18296;SDS011;18066;52.106;5.534;2022-10-18T00:45:52;5.20;;;4.68;;
18296;SDS011;18066;52.106;5.534;2022-10-18T00:48:19;5.65;;;4.88;;
18296;SDS011;18066;52.106;5.534;2022-10-18T00:50:46;5.45;;;4.85;;
18296;SDS011;18066;52.106;5.534;2022-10-18T00:53:16;5.32;;;4.82;;
18296;SDS011;18066;52.106;5.534;2022-10-18T00:55:45;7.22;;;4.72;;
18296;SDS011;18066;52.106;5.534;2022-10-18T00:58:13;4.93;;;4.43;;
18296;SDS011;18066;52.106;5.534;2022-10-18T01:00:43;5.00;;;4.32;;
18296;SDS011;18066;52.106;5.534;2022-10-18T01:03:09;11.13;;;4.82;;
18296;SDS011;18066;52.106;5.534;2022-10-18T01:05:38;6.78;;;4.45;;
18296;SDS011;18066;52.106;5.534;2022-10-18T01:08:15;7.15;;;4.85;;
18296;SDS011;18066;52.106;5.534;2022-10-18T01:10:55;9.68;;;4.80;;
18296;SDS011;18066;52.106;5.534;2022-10-18T01:13:43;8.07;;;5.10;;
18296;SDS011;18066;52.106;5.534;2022-10-18T01:16:24;7.50;;;4.95;;
18296;SDS011;18066;52.106;5.534;2022-10-18T01:18:56;6.55;;;4.50;;
18296;SDS011;18066;52.106;5.534;2022-10-18T01:21:30;4.95;;;4.45;;
18296;SDS011;18066;52.106;5.534;2022-10-18T01:24:14;5.78;;;4.53;;
18296;SDS011;18066;52.106;5.534;2022-10-18T01:27:03;6.93;;;4.97;;
18296;SDS011;18066;52.106;5.534;2022-10-18T01:29:50;6.28;;;4.90;;
18296;SDS011;18066;52.106;5.534;2022-10-18T01:32:28;5.47;;;4.40;;
18296;SDS011;18066;52.106;5.534;2022-10-18T01:35:02;8.10;;;5.25;;
18296;SDS011;18066;52.106;5.534;2022-10-18T01:37:33;8.73;;;5.43;;
18296;SDS011;18066;52.106;5.534;2022-10-18T01:40:02;7.07;;;4.97;;
18296;SDS011;18066;52.106;5.534;2022-10-18T01:42:31;7.97;;;5.97;;
18296;SDS011;18066;52.106;5.534;2022-10-18T01:44:58;9.05;;;6.53;;
18296;SDS011;18066;52.106;5.534;2022-10-18T01:47:29;9.85;;;6.95;;
18296;SDS011;18066;52.106;5.534;2022-10-18T01:49:57;9.07;;;7.63;;
18296;SDS011;18066;52.106;5.534;2022-10-18T01:52:25;8.75;;;7.18;;
18296;SDS011;18066;52.106;5.534;2022-10-18T01:54:52;8.02;;;7.00;;
18296;SDS011;18066;52.106;5.534;2022-10-18T01:57:21;14.27;;;7.47;;
18296;SDS011;18066;52.106;5.534;2022-10-18T01:59:56;7.43;;;6.50;;
18296;SDS011;18066;52.106;5.534;2022-10-18T02:02:29;7.85;;;6.32;;
18296;SDS011;18066;52.106;5.534;2022-10-18T02:05:07;10.05;;;7.35;;
18296;SDS011;18066;52.106;5.534;2022-10-18T02:07:43;7.88;;;6.65;;
18296;SDS011;18066;52.106;5.534;2022-10-18T02:10:16;7.50;;;6.80;;
18296;SDS011;18066;52.106;5.534;2022-10-18T02:12:48;9.20;;;6.60;;
18296;SDS011;18066;52.106;5.534;2022-10-18T02:15:18;8.15;;;6.35;;
18296;SDS011;18066;52.106;5.534;2022-10-18T02:17:48;7.35;;;6.65;;
18296;SDS011;18066;52.106;5.534;2022-10-18T02:20:17;6.80;;;6.20;;
18296;SDS011;18066;52.106;5.534;2022-10-18T02:22:47;11.57;;;6.80;;
18296;SDS011;18066;52.106;5.534;2022-10-18T02:25:16;7.65;;;6.03;;
18296;SDS011;18066;52.106;5.534;2022-10-18T02:27:46;6.38;;;5.78;;
18296;SDS011;18066;52.106;5.534;2022-10-18T02:30:13;8.35;;;6.30;;
18296;SDS011;18066;52.106;5.534;2022-10-18T02:32:42;11.43;;;5.47;;
18296;SDS011;18066;52.106;5.534;2022-10-18T02:35:18;7.95;;;5.40;;
18296;SDS011;18066;52.106;5.534;2022-10-18T02:37:48;10.85;;;5.38;;
18296;SDS011;18066;52.106;5.534;2022-10-18T02:40:17;7.43;;;5.10;;
18296;SDS011;18066;52.106;5.534;2022-10-18T02:42:45;6.65;;;5.43;;
18296;SDS011;18066;52.106;5.534;2022-10-18T02:45:13;9.10;;;4.60;;
18296;SDS011;18066;52.106;5.534;2022-10-18T02:47:41;7.03;;;4.85;;
18296;SDS011;18066;52.106;5.534;2022-10-18T02:50:08;4.80;;;4.35;;
18296;SDS011;18066;52.106;5.534;2022-10-18T02:52:36;5.05;;;4.63;;
18296;SDS011;18066;52.106;5.534;2022-10-18T02:55:03;5.30;;;4.32;;
18296;SDS011;18066;52.106;5.534;2022-10-18T02:57:31;8.90;;;4.65;;
18296;SDS011;18066;52.106;5.534;2022-10-18T02:59:58;5.30;;;4.80;;
18296;SDS011;18066;52.106;5.534;2022-10-18T03:02:25;4.68;;;3.88;;
18296;SDS011;18066;52.106;5.534;2022-10-18T03:04:52;3.67;;;3.40;;
18296;SDS011;18066;52.106;5.534;2022-10-18T03:07:18;3.83;;;3.53;;
18296;SDS011;18066;52.106;5.534;2022-10-18T03:09:47;4.22;;;3.33;;
18296;SDS011;18066;52.106;5.534;2022-10-18T03:12:14;8.07;;;3.72;;
18296;SDS011;18066;52.106;5.534;2022-10-18T03:14:41;4.93;;;3.63;;
18296;SDS011;18066;52.106;5.534;2022-10-18T03:17:07;5.63;;;3.65;;
18296;SDS011;18066;52.106;5.534;2022-10-18T03:19:34;8.95;;;4.15;;
18296;SDS011;18066;52.106;5.534;2022-10-18T03:22:02;6.53;;;3.83;;
18296;SDS011;18066;52.106;5.534;2022-10-18T03:24:29;5.72;;;3.55;;
18296;SDS011;18066;52.106;5.534;2022-10-18T03:26:57;6.80;;;3.83;;
18296;SDS011;18066;52.106;5.534;2022-10-18T03:29:24;5.13;;;3.60;;
18296;SDS011;18066;52.106;5.534;2022-10-18T03:31:51;3.88;;;3.47;;
18296;SDS011;18066;52.106;5.534;2022-10-18T03:34:18;6.40;;;3.53;;
18296;SDS011;18066;52.106;5.534;2022-10-18T03:36:44;5.32;;;3.78;;
18296;SDS011;18066;52.106;5.534;2022-10-18T03:39:11;3.30;;;3.00;;
18296;SDS011;18066;52.106;5.534;2022-10-18T03:41:38;3.67;;;3.38;;
18296;SDS011;18066;52.106;5.534;2022-10-18T03:44:06;4.20;;;3.63;;
18296;SDS011;18066;52.106;5.534;2022-10-18T03:46:33;5.13;;;3.42;;
18296;SDS011;18066;52.106;5.534;2022-10-18T03:49:00;4.03;;;3.00;;
18296;SDS011;18066;52.106;5.534;2022-10-18T03:51:27;6.40;;;3.40;;
18296;SDS011;18066;52.106;5.534;2022-10-18T03:53:54;4.00;;;3.70;;
18296;SDS011;18066;52.106;5.534;2022-10-18T03:56:20;5.38;;;2.88;;
18296;SDS011;18066;52.106;5.534;2022-10-18T03:58:47;3.25;;;2.97;;
18296;SDS011;18066;52.106;5.534;2022-10-18T04:01:15;3.10;;;2.90;;
18296;SDS011;18066;52.106;5.534;2022-10-18T04:03:42;3.40;;;3.10;;
18296;SDS011;18066;52.106;5.534;2022-10-18T04:06:09;3.05;;;2.75;;
18296;SDS011;18066;52.106;5.534;2022-10-18T04:08:37;2.97;;;2.72;;
18296;SDS011;18066;52.106;5.534;2022-10-18T04:11:04;2.75;;;2.55;;
18296;SDS011;18066;52.106;5.534;2022-10-18T04:13:33;2.53;;;2.33;;
18296;SDS011;18066;52.106;5.534;2022-10-18T04:16:00;3.03;;;2.72;;
18296;SDS011;18066;52.106;5.534;2022-10-18T04:18:29;4.75;;;2.42;;
18296;SDS011;18066;52.106;5.534;2022-10-18T04:20:56;2.42;;;2.22;;
18296;SDS011;18066;52.106;5.534;2022-10-18T04:23:23;3.42;;;2.40;;
18296;SDS011;18066;52.106;5.534;2022-10-18T04:25:49;2.55;;;2.35;;
18296;SDS011;18066;52.106;5.534;2022-10-18T04:28:16;2.50;;;2.30;;
18296;SDS011;18066;52.106;5.534;2022-10-18T04:30:47;2.25;;;2.15;;
18296;SDS011;18066;52.106;5.534;2022-10-18T04:33:15;2.88;;;2.05;;
18296;SDS011;18066;52.106;5.534;2022-10-18T04:35:43;2.95;;;2.13;;
18296;SDS011;18066;52.106;5.534;2022-10-18T04:38:10;4.00;;;2.47;;
18296;SDS011;18066;52.106;5.534;2022-10-18T04:40:38;2.70;;;2.47;;
18296;SDS011;18066;52.106;5.534;2022-10-18T04:43:05;3.00;;;2.70;;
18296;SDS011;18066;52.106;5.534;2022-10-18T04:45:32;2.72;;;2.53;;
18296;SDS011;18066;52.106;5.534;2022-10-18T04:47:58;3.15;;;2.50;;
18296;SDS011;18066;52.106;5.534;2022-10-18T04:50:26;2.65;;;2.10;;
18296;SDS011;18066;52.106;5.534;2022-10-18T04:52:54;2.40;;;2.30;;
18296;SDS011;18066;52.106;5.534;2022-10-18T04:55:21;7.55;;;2.50;;
18296;SDS011;18066;52.106;5.534;2022-10-18T04:57:47;2.60;;;2.40;;
18296;SDS011;18066;52.106;5.534;2022-10-18T05:00:14;1.92;;;1.83;;
18296;SDS011;18066;52.106;5.534;2022-10-18T05:02:41;2.45;;;2.25;;
18296;SDS011;18066;52.106;5.534;2022-10-18T05:05:08;3.60;;;2.45;;
18296;SDS011;18066;52.106;5.534;2022-10-18T05:07:35;1.88;;;1.77;;
18296;SDS011;18066;52.106;5.534;2022-10-18T05:10:04;2.15;;;1.95;;
18296;SDS011;18066;52.106;5.534;2022-10-18T05:12:31;2.13;;;2.03;;
18296;SDS011;18066;52.106;5.534;2022-10-18T05:14:57;5.05;;;2.35;;
18296;SDS011;18066;52.106;5.534;2022-10-18T05:17:24;2.00;;;1.90;;
18296;SDS011;18066;52.106;5.534;2022-10-18T05:19:51;2.03;;;1.92;;
18296;SDS011;18066;52.106;5.534;2022-10-18T05:22:18;2.70;;;1.80;;
18296;SDS011;18066;52.106;5.534;2022-10-18T05:24:45;5.30;;;1.40;;
18296;SDS011;18066;52.106;5.534;2022-10-18T05:27:13;3.22;;;2.00;;
18296;SDS011;18066;52.106;5.534;2022-10-18T05:29:40;1.80;;;1.70;;
18296;SDS011;18066;52.106;5.534;2022-10-18T05:32:06;5.43;;;2.00;;
18296;SDS011;18066;52.106;5.534;2022-10-18T05:34:33;3.42;;;1.92;;
18296;SDS011;18066;52.106;5.534;2022-10-18T05:37:00;4.43;;;2.60;;
18296;SDS011;18066;52.106;5.534;2022-10-18T05:39:27;2.40;;;2.03;;
18296;SDS011;18066;52.106;5.534;2022-10-18T05:41:54;2.70;;;2.50;;
18296;SDS011;18066;52.106;5.534;2022-10-18T05:44:23;3.33;;;3.03;;
18296;SDS011;18066;52.106;5.534;2022-10-18T05:46:50;3.45;;;2.65;;
18296;SDS011;18066;52.106;5.534;2022-10-18T05:49:17;3.42;;;2.75;;
18296;SDS011;18066;52.106;5.534;2022-10-18T05:51:44;2.85;;;2.65;;
18296;SDS011;18066;52.106;5.534;2022-10-18T05:54:11;2.70;;;2.50;;
18296;SDS011;18066;52.106;5.534;2022-10-18T05:56:38;3.20;;;2.75;;
18296;SDS011;18066;52.106;5.534;2022-10-18T05:59:05;4.22;;;2.85;;
18296;SDS011;18066;52.106;5.534;2022-10-18T06:01:37;3.60;;;3.25;;
18296;SDS011;18066;52.106;5.534;2022-10-18T06:04:04;3.10;;;2.80;;
18296;SDS011;18066;52.106;5.534;2022-10-18T06:06:32;2.97;;;2.67;;
18296;SDS011;18066;52.106;5.534;2022-10-18T06:08:59;3.75;;;2.90;;
18296;SDS011;18066;52.106;5.534;2022-10-18T06:11:27;4.55;;;3.80;;
18296;SDS011;18066;52.106;5.534;2022-10-18T06:13:54;8.13;;;3.95;;
18296;SDS011;18066;52.106;5.534;2022-10-18T06:16:22;4.45;;;3.83;;
18296;SDS011;18066;52.106;5.534;2022-10-18T06:18:53;3.95;;;3.50;;
18296;SDS011;18066;52.106;5.534;2022-10-18T06:21:22;5.78;;;3.45;;
18296;SDS011;18066;52.106;5.534;2022-10-18T06:23:49;4.40;;;3.85;;
18296;SDS011;18066;52.106;5.534;2022-10-18T06:26:17;6.78;;;3.95;;
18296;SDS011;18066;52.106;5.534;2022-10-18T06:28:44;4.15;;;3.50;;
18296;SDS011;18066;52.106;5.534;2022-10-18T06:31:11;4.55;;;4.07;;
18296;SDS011;18066;52.106;5.534;2022-10-18T06:33:39;4.07;;;3.67;;
18296;SDS011;18066;52.106;5.534;2022-10-18T06:36:09;3.80;;;3.50;;
18296;SDS011;18066;52.106;5.534;2022-10-18T06:38:37;4.53;;;3.50;;
18296;SDS011;18066;52.106;5.534;2022-10-18T06:41:04;3.72;;;3.42;;
18296;SDS011;18066;52.106;5.534;2022-10-18T06:43:31;3.35;;;3.05;;
18296;SDS011;18066;52.106;5.534;2022-10-18T06:45:59;3.60;;;3.33;;
18296;SDS011;18066;52.106;5.534;2022-10-18T06:48:27;3.30;;;3.00;;
18296;SDS011;18066;52.106;5.534;2022-10-18T06:50:54;3.40;;;3.10;;
18296;SDS011;18066;52.106;5.534;2022-10-18T06:53:23;4.28;;;3.33;;
18296;SDS011;18066;52.106;5.534;2022-10-18T06:55:51;3.75;;;3.10;;
18296;SDS011;18066;52.106;5.534;2022-10-18T06:58:18;3.35;;;3.08;;
18296;SDS011;18066;52.106;5.534;2022-10-18T07:00:45;6.40;;;3.60;;
18296;SDS011;18066;52.106;5.534;2022-10-18T07:03:12;5.97;;;3.13;;
18296;SDS011;18066;52.106;5.534;2022-10-18T07:05:39;3.70;;;3.40;;
18296;SDS011;18066;52.106;5.534;2022-10-18T07:08:06;3.72;;;3.33;;
18296;SDS011;18066;52.106;5.534;2022-10-18T07:10:34;3.33;;;3.13;;
18296;SDS011;18066;52.106;5.534;2022-10-18T07:13:01;3.83;;;3.53;;
18296;SDS011;18066;52.106;5.534;2022-10-18T07:15:28;3.42;;;3.13;;
18296;SDS011;18066;52.106;5.534;2022-10-18T07:17:55;3.53;;;3.22;;
18296;SDS011;18066;52.106;5.534;2022-10-18T07:20:21;3.28;;;2.97;;
18296;SDS011;18066;52.106;5.534;2022-10-18T07:22:48;3.83;;;3.50;;
18296;SDS011;18066;52.106;5.534;2022-10-18T07:25:15;3.90;;;3.60;;
18296;SDS011;18066;52.106;5.534;2022-10-18T07:27:43;3.58;;;3.30;;
18296;SDS011;18066;52.106;5.534;2022-10-18T07:30:10;3.53;;;3.22;;
18296;SDS011;18066;52.106;5.534;2022-10-18T07:32:37;3.63;;;3.33;;
18296;SDS011;18066;52.106;5.534;2022-10-18T07:35:04;3.90;;;3.60;;
18296;SDS011;18066;52.106;5.534;2022-10-18T07:37:31;3.42;;;3.13;;
18296;SDS011;18066;52.106;5.534;2022-10-18T07:39:58;5.13;;;3.15;;
18296;SDS011;18066;52.106;5.534;2022-10-18T07:42:25;3.60;;;3.30;;
18296;SDS011;18066;52.106;5.534;2022-10-18T07:44:53;4.82;;;3.42;;
18296;SDS011;18066;52.106;5.534;2022-10-18T07:47:20;3.80;;;3.35;;
18296;SDS011;18066;52.106;5.534;2022-10-18T07:49:47;4.20;;;3.80;;
18296;SDS011;18066;52.106;5.534;2022-10-18T07:52:13;3.60;;;3.30;;
18296;SDS011;18066;52.106;5.534;2022-10-18T07:54:40;4.53;;;3.33;;
18296;SDS011;18066;52.106;5.534;2022-10-18T07:57:07;3.63;;;3.33;;
18296;SDS011;18066;52.106;5.534;2022-10-18T07:59:34;3.45;;;3.15;;
18296;SDS011;18066;52.106;5.534;2022-10-18T08:02:02;3.95;;;3.60;;
18296;SDS011;18066;52.106;5.534;2022-10-18T08:04:29;3.88;;;3.53;;
18296;SDS011;18066;52.106;5.534;2022-10-18T08:06:55;4.47;;;3.60;;
18296;SDS011;18066;52.106;5.534;2022-10-18T08:09:22;4.40;;;3.53;;
18296;SDS011;18066;52.106;5.534;2022-10-18T08:11:49;4.90;;;3.95;;
18296;SDS011;18066;52.106;5.534;2022-10-18T08:14:16;3.85;;;3.55;;
18296;SDS011;18066;52.106;5.534;2022-10-18T08:16:43;5.07;;;3.42;;
18296;SDS011;18066;52.106;5.534;2022-10-18T08:19:11;3.97;;;3.58;;
18296;SDS011;18066;52.106;5.534;2022-10-18T08:21:37;7.32;;;3.20;;
18296;SDS011;18066;52.106;5.534;2022-10-18T08:24:04;4.45;;;4.03;;
18296;SDS011;18066;52.106;5.534;2022-10-18T08:26:31;5.40;;;3.50;;
18296;SDS011;18066;52.106;5.534;2022-10-18T08:28:58;3.83;;;3.53;;
18296;SDS011;18066;52.106;5.534;2022-10-18T08:31:25;4.10;;;3.78;;
18296;SDS011;18066;52.106;5.534;2022-10-18T08:33:53;4.07;;;3.78;;
18296;SDS011;18066;52.106;5.534;2022-10-18T08:36:22;4.38;;;3.78;;
18296;SDS011;18066;52.106;5.534;2022-10-18T08:38:49;4.68;;;4.18;;
18296;SDS011;18066;52.106;5.534;2022-10-18T08:41:26;5.18;;;4.25;;
18296;SDS011;18066;52.106;5.534;2022-10-18T08:44:13;5.05;;;4.47;;
18296;SDS011;18066;52.106;5.534;2022-10-18T08:46:44;4.15;;;3.58;;
18296;SDS011;18066;52.106;5.534;2022-10-18T08:49:18;4.63;;;4.07;;
18296;SDS011;18066;52.106;5.534;2022-10-18T08:51:51;5.18;;;4.30;;
18296;SDS011;18066;52.106;5.534;2022-10-18T08:54:21;5.43;;;4.60;;
18296;SDS011;18066;52.106;5.534;2022-10-18T08:56:55;6.15;;;5.30;;
18296;SDS011;18066;52.106;5.534;2022-10-18T08:59:25;6.57;;;4.20;;
18296;SDS011;18066;52.106;5.534;2022-10-18T09:01:59;7.18;;;4.70;;
18296;SDS011;18066;52.106;5.534;2022-10-18T09:04:36;7.93;;;5.18;;
18296;SDS011;18066;52.106;5.534;2022-10-18T09:07:25;7.68;;;3.90;;
18296;SDS011;18066;52.106;5.534;2022-10-18T09:10:07;6.65;;;5.00;;
18296;SDS011;18066;52.106;5.534;2022-10-18T09:12:53;5.15;;;4.70;;
18296;SDS011;18066;52.106;5.534;2022-10-18T09:15:32;12.38;;;7.70;;
18296;SDS011;18066;52.106;5.534;2022-10-18T09:18:08;10.15;;;6.63;;
18296;SDS011;18066;52.106;5.534;2022-10-18T09:20:49;7.78;;;5.70;;
18296;SDS011;18066;52.106;5.534;2022-10-18T09:23:23;10.40;;;5.65;;
18296;SDS011;18066;52.106;5.534;2022-10-18T09:26:05;7.07;;;5.82;;
18296;SDS011;18066;52.106;5.534;2022-10-18T09:28:38;8.57;;;5.97;;
18296;SDS011;18066;52.106;5.534;2022-10-18T09:31:14;7.20;;;5.60;;
18296;SDS011;18066;52.106;5.534;2022-10-18T09:33:48;8.20;;;5.60;;
18296;SDS011;18066;52.106;5.534;2022-10-18T09:36:19;8.35;;;5.35;;
18296;SDS011;18066;52.106;5.534;2022-10-18T09:38:50;8.60;;;5.25;;
18296;SDS011;18066;52.106;5.534;2022-10-18T09:41:19;8.68;;;5.57;;
18296;SDS011;18066;52.106;5.534;2022-10-18T09:43:51;10.38;;;5.75;;
18296;SDS011;18066;52.106;5.534;2022-10-18T09:46:23;7.40;;;5.45;;
18296;SDS011;18066;52.106;5.534;2022-10-18T09:48:54;6.57;;;4.88;;
18296;SDS011;18066;52.106;5.534;2022-10-18T09:51:25;5.75;;;4.93;;
18296;SDS011;18066;52.106;5.534;2022-10-18T09:53:59;8.10;;;5.00;;
18296;SDS011;18066;52.106;5.534;2022-10-18T09:56:31;7.45;;;4.95;;
18296;SDS011;18066;52.106;5.534;2022-10-18T09:59:03;7.55;;;4.60;;
18296;SDS011;18066;52.106;5.534;2022-10-18T10:01:30;6.35;;;4.10;;
18296;SDS011;18066;52.106;5.534;2022-10-18T10:03:57;11.25;;;4.10;;
18296;SDS011;18066;52.106;5.534;2022-10-18T10:06:25;9.15;;;4.65;;
18296;SDS011;18066;52.106;5.534;2022-10-18T10:08:53;12.35;;;3.78;;
18296;SDS011;18066;52.106;5.534;2022-10-18T10:11:27;10.60;;;4.30;;
18296;SDS011;18066;52.106;5.534;2022-10-18T10:14:05;6.70;;;3.80;;
18296;SDS011;18066;52.106;5.534;2022-10-18T10:16:38;10.70;;;4.15;;
18296;SDS011;18066;52.106;5.534;2022-10-18T10:19:14;13.88;;;4.32;;
18296;SDS011;18066;52.106;5.534;2022-10-18T10:21:45;7.10;;;4.03;;
18296;SDS011;18066;52.106;5.534;2022-10-18T10:24:18;9.70;;;3.50;;
18296;SDS011;18066;52.106;5.534;2022-10-18T10:26:50;14.07;;;3.42;;
18296;SDS011;18066;52.106;5.534;2022-10-18T10:32:28;9.57;;;3.47;;
18296;SDS011;18066;52.106;5.534;2022-10-18T10:34:56;8.07;;;3.40;;
18296;SDS011;18066;52.106;5.534;2022-10-18T10:37:24;7.60;;;3.05;;
18296;SDS011;18066;52.106;5.534;2022-10-18T10:40:16;6.10;;;2.60;;
18296;SDS011;18066;52.106;5.534;2022-10-18T10:42:52;8.98;;;2.85;;
18296;SDS011;18066;52.106;5.534;2022-10-18T10:45:25;10.45;;;2.38;;
18296;SDS011;18066;52.106;5.534;2022-10-18T10:47:53;7.63;;;1.95;;
18296;SDS011;18066;52.106;5.534;2022-10-18T10:50:27;7.85;;;2.03;;
18296;SDS011;18066;52.106;5.534;2022-10-18T10:52:55;8.40;;;1.75;;
18296;SDS011;18066;52.106;5.534;2022-10-18T10:55:24;9.48;;;1.70;;
18296;SDS011;18066;52.106;5.534;2022-10-18T10:57:55;5.50;;;1.58;;
18296;SDS011;18066;52.106;5.534;2022-10-18T11:00:35;7.15;;;1.30;;
18296;SDS011;18066;52.106;5.534;2022-10-18T11:03:04;5.15;;;1.10;;
18296;SDS011;18066;52.106;5.534;2022-10-18T11:05:41;5.53;;;1.30;;
18296;SDS011;18066;52.106;5.534;2022-10-18T11:08:10;5.18;;;1.27;;
18296;SDS011;18066;52.106;5.534;2022-10-18T11:10:41;7.10;;;1.17;;
18296;SDS011;18066;52.106;5.534;2022-10-18T11:13:21;7.57;;;1.30;;
18296;SDS011;18066;52.106;5.534;2022-10-18T11:15:53;5.10;;;1.10;;
18296;SDS011;18066;52.106;5.534;2022-10-18T11:18:26;8.40;;;0.85;;
18296;SDS011;18066;52.106;5.534;2022-10-18T11:20:57;4.40;;;1.08;;
18296;SDS011;18066;52.106;5.534;2022-10-18T11:23:32;5.75;;;0.85;;
18296;SDS011;18066;52.106;5.534;2022-10-18T11:26:02;9.45;;;1.13;;
18296;SDS011;18066;52.106;5.534;2022-10-18T11:28:43;7.18;;;1.10;;
18296;SDS011;18066;52.106;5.534;2022-10-18T11:31:26;12.48;;;1.60;;
18296;SDS011;18066;52.106;5.534;2022-10-18T11:34:03;5.93;;;1.00;;
18296;SDS011;18066;52.106;5.534;2022-10-18T11:36:44;3.45;;;0.73;;
18296;SDS011;18066;52.106;5.534;2022-10-18T11:39:21;5.32;;;0.90;;
18296;SDS011;18066;52.106;5.534;2022-10-18T11:42:00;4.80;;;1.00;;
18296;SDS011;18066;52.106;5.534;2022-10-18T11:44:34;6.03;;;0.80;;
18296;SDS011;18066;52.106;5.534;2022-10-18T11:47:07;4.90;;;0.88;;
18296;SDS011;18066;52.106;5.534;2022-10-18T11:49:52;3.53;;;0.75;;
18296;SDS011;18066;52.106;5.534;2022-10-18T11:52:28;2.25;;;0.88;;
18296;SDS011;18066;52.106;5.534;2022-10-18T11:55:16;4.60;;;0.98;;
18296;SDS011;18066;52.106;5.534;2022-10-18T11:57:54;3.42;;;1.00;;
18296;SDS011;18066;52.106;5.534;2022-10-18T12:00:31;5.25;;;1.23;;
18296;SDS011;18066;52.106;5.534;2022-10-18T12:06:04;5.15;;;1.08;;
18296;SDS011;18066;52.106;5.534;2022-10-18T12:08:37;8.20;;;1.20;;
18296;SDS011;18066;52.106;5.534;2022-10-18T12:11:08;3.85;;;0.85;;
18296;SDS011;18066;52.106;5.534;2022-10-18T12:13:40;5.80;;;1.20;;
18296;SDS011;18066;52.106;5.534;2022-10-18T12:16:12;5.60;;;1.20;;
18296;SDS011;18066;52.106;5.534;2022-10-18T12:18:46;4.43;;;0.85;;
18296;SDS011;18066;52.106;5.534;2022-10-18T12:21:19;8.02;;;0.90;;
18296;SDS011;18066;52.106;5.534;2022-10-18T12:23:49;8.52;;;0.90;;
18296;SDS011;18066;52.106;5.534;2022-10-18T12:26:18;3.45;;;0.80;;
18296;SDS011;18066;52.106;5.534;2022-10-18T12:28:48;5.90;;;0.82;;
18296;SDS011;18066;52.106;5.534;2022-10-18T12:31:25;4.78;;;1.02;;
18296;SDS011;18066;52.106;5.534;2022-10-18T12:33:59;8.05;;;1.13;;
18296;SDS011;18066;52.106;5.534;2022-10-18T12:39:31;6.38;;;0.90;;
18296;SDS011;18066;52.106;5.534;2022-10-18T12:42:02;7.68;;;0.95;;
18296;SDS011;18066;52.106;5.534;2022-10-18T12:44:30;2.78;;;0.50;;
18296;SDS011;18066;52.106;5.534;2022-10-18T12:47:01;2.67;;;0.75;;
18296;SDS011;18066;52.106;5.534;2022-10-18T12:49:30;5.20;;;0.77;;
18296;SDS011;18066;52.106;5.534;2022-10-18T12:51:59;2.90;;;0.50;;
18296;SDS011;18066;52.106;5.534;2022-10-18T12:54:29;3.78;;;1.08;;
18296;SDS011;18066;52.106;5.534;2022-10-18T12:56:57;3.88;;;0.93;;
18296;SDS011;18066;52.106;5.534;2022-10-18T13:02:20;3.45;;;0.80;;
18296;SDS011;18066;52.106;5.534;2022-10-18T13:04:52;5.55;;;0.75;;
18296;SDS011;18066;52.106;5.534;2022-10-18T13:07:21;6.80;;;1.90;;
18296;SDS011;18066;52.106;5.534;2022-10-18T13:16:04;5.10;;;0.73;;
18296;SDS011;18066;52.106;5.534;2022-10-18T13:18:42;3.78;;;0.80;;
18296;SDS011;18066;52.106;5.534;2022-10-18T13:21:19;3.78;;;0.82;;
18296;SDS011;18066;52.106;5.534;2022-10-18T13:23:59;3.40;;;0.57;;
18296;SDS011;18066;52.106;5.534;2022-10-18T13:26:37;4.28;;;0.77;;
18296;SDS011;18066;52.106;5.534;2022-10-18T13:29:16;2.63;;;0.70;;
18296;SDS011;18066;52.106;5.534;2022-10-18T13:31:56;3.35;;;0.63;;
18296;SDS011;18066;52.106;5.534;2022-10-18T13:34:32;4.47;;;0.80;;
18296;SDS011;18066;52.106;5.534;2022-10-18T13:37:03;2.38;;;0.55;;
18296;SDS011;18066;52.106;5.534;2022-10-18T13:39:31;5.95;;;0.65;;
18296;SDS011;18066;52.106;5.534;2022-10-18T13:42:18;3.50;;;0.68;;
18296;SDS011;18066;52.106;5.534;2022-10-18T13:44:48;2.65;;;0.60;;
18296;SDS011;18066;52.106;5.534;2022-10-18T13:47:15;4.88;;;0.70;;
18296;SDS011;18066;52.106;5.534;2022-10-18T13:50:05;3.65;;;0.80;;
18296;SDS011;18066;52.106;5.534;2022-10-18T13:52:52;4.60;;;1.00;;
18296;SDS011;18066;52.106;5.534;2022-10-18T13:55:36;4.70;;;0.85;;
18296;SDS011;18066;52.106;5.534;2022-10-18T13:58:20;3.63;;;0.88;;
18296;SDS011;18066;52.106;5.534;2022-10-18T14:00:55;5.07;;;0.70;;
18296;SDS011;18066;52.106;5.534;2022-10-18T14:03:34;6.45;;;0.70;;
18296;SDS011;18066;52.106;5.534;2022-10-18T14:06:20;6.93;;;1.00;;
18296;SDS011;18066;52.106;5.534;2022-10-18T14:08:51;4.45;;;0.88;;
18296;SDS011;18066;52.106;5.534;2022-10-18T14:11:23;5.70;;;0.98;;
18296;SDS011;18066;52.106;5.534;2022-10-18T14:14:00;4.78;;;0.88;;
18296;SDS011;18066;52.106;5.534;2022-10-18T14:16:33;2.20;;;0.73;;
18296;SDS011;18066;52.106;5.534;2022-10-18T14:19:07;4.47;;;0.70;;
18296;SDS011;18066;52.106;5.534;2022-10-18T14:21:44;6.95;;;1.10;;
18296;SDS011;18066;52.106;5.534;2022-10-18T14:24:18;6.82;;;1.10;;
18296;SDS011;18066;52.106;5.534;2022-10-18T14:27:09;6.15;;;1.20;;
18296;SDS011;18066;52.106;5.534;2022-10-18T14:29:38;5.18;;;0.88;;
18296;SDS011;18066;52.106;5.534;2022-10-18T14:32:07;4.97;;;1.00;;
18296;SDS011;18066;52.106;5.534;2022-10-18T14:34:35;3.35;;;0.90;;
18296;SDS011;18066;52.106;5.534;2022-10-18T14:37:03;7.03;;;0.90;;
18296;SDS011;18066;52.106;5.534;2022-10-18T14:39:31;8.77;;;1.73;;
18296;SDS011;18066;52.106;5.534;2022-10-18T14:41:58;7.90;;;1.23;;
18296;SDS011;18066;52.106;5.534;2022-10-18T14:44:25;4.82;;;1.42;;
18296;SDS011;18066;52.106;5.534;2022-10-18T14:46:57;6.55;;;1.20;;
18296;SDS011;18066;52.106;5.534;2022-10-18T14:49:26;4.20;;;1.23;;
18296;SDS011;18066;52.106;5.534;2022-10-18T14:51:53;7.97;;;1.08;;
18296;SDS011;18066;52.106;5.534;2022-10-18T14:54:24;4.47;;;0.93;;
18296;SDS011;18066;52.106;5.534;2022-10-18T14:56:54;9.48;;;2.30;;
18296;SDS011;18066;52.106;5.534;2022-10-18T14:59:22;7.78;;;1.48;;
18296;SDS011;18066;52.106;5.534;2022-10-18T15:01:53;4.93;;;0.93;;
18296;SDS011;18066;52.106;5.534;2022-10-18T15:04:22;4.22;;;1.00;;
18296;SDS011;18066;52.106;5.534;2022-10-18T15:06:55;4.40;;;1.15;;
18296;SDS011;18066;52.106;5.534;2022-10-18T15:09:23;13.23;;;1.98;;
18296;SDS011;18066;52.106;5.534;2022-10-18T15:11:51;6.70;;;1.30;;
18296;SDS011;18066;52.106;5.534;2022-10-18T15:14:22;7.22;;;1.17;;
18296;SDS011;18066;52.106;5.534;2022-10-18T15:16:51;8.90;;;1.58;;
18296;SDS011;18066;52.106;5.534;2022-10-18T15:19:28;2.72;;;1.05;;
18296;SDS011;18066;52.106;5.534;2022-10-18T15:21:57;4.28;;;1.30;;
18296;SDS011;18066;52.106;5.534;2022-10-18T15:24:31;7.75;;;1.33;;
18296;SDS011;18066;52.106;5.534;2022-10-18T15:27:01;10.00;;;1.20;;